sensor_id;sensor_type;location;lat;lon;timestamp;temperature;humidity
23395;DHT22;11870;53.084;18.206;2023-06-10T00:04:43;17.70;99.90
23395;DHT22;11870;53.084;18.206;2023-06-10T00:07:09;17.70;99.90
23395;DHT22;11870;53.084;18.206;2023-06-10T00:09:36;17.60;99.90
23395;DHT22;11870;53.084;18.206;2023-06-10T00:12:07;17.50;99.90
23395;DHT22;11870;53.084;18.206;2023-06-10T00:14:36;17.40;99.90
23395;DHT22;11870;53.084;18.206;2023-06-10T00:17:02;19.20;99.90
23395;DHT22;11870;53.084;18.206;2023-06-10T00:19:28;17.10;99.90
23395;DHT22;11870;53.084;18.206;2023-06-10T00:21:56;17.80;99.90
23395;DHT22;11870;53.084;18.206;2023-06-10T00:24:23;17.30;99.90
23395;DHT22;11870;53.084;18.206;2023-06-10T00:26:49;16.90;99.90
23395;DHT22;11870;53.084;18.206;2023-06-10T00:29:15;17.00;99.90
23395;DHT22;11870;53.084;18.206;2023-06-10T00:31:41;17.00;99.90
23395;DHT22;11870;53.084;18.206;2023-06-10T00:34:08;16.90;99.90
23395;DHT22;11870;53.084;18.206;2023-06-10T00:36:34;17.60;99.90
23395;DHT22;11870;53.084;18.206;2023-06-10T00:39:02;17.00;99.90
23395;DHT22;11870;53.084;18.206;2023-06-10T00:41:28;16.70;99.90
23395;DHT22;11870;53.084;18.206;2023-06-10T00:43:54;16.70;99.90
23395;DHT22;11870;53.084;18.206;2023-06-10T00:46:21;16.50;99.90
23395;DHT22;11870;53.084;18.206;2023-06-10T00:48:48;16.40;99.90
23395;DHT22;11870;53.084;18.206;2023-06-10T00:53:41;16.30;99.90
23395;DHT22;11870;53.084;18.206;2023-06-10T00:56:07;16.40;99.90
23395;DHT22;11870;53.084;18.206;2023-06-10T00:58:34;16.30;99.90
23395;DHT22;11870;53.084;18.206;2023-06-10T01:01:00;16.40;99.90
23395;DHT22;11870;53.084;18.206;2023-06-10T01:03:27;16.30;99.90
23395;DHT22;11870;53.084;18.206;2023-06-10T01:06:19;16.30;99.90
23395;DHT22;11870;53.084;18.206;2023-06-10T01:11:39;16.40;99.90
23395;DHT22;11870;53.084;18.206;2023-06-10T01:14:07;16.40;99.90
23395;DHT22;11870;53.084;18.206;2023-06-10T01:16:34;16.40;99.90
23395;DHT22;11870;53.084;18.206;2023-06-10T01:19:03;16.50;99.90
23395;DHT22;11870;53.084;18.206;2023-06-10T01:21:29;17.40;99.90
23395;DHT22;11870;53.084;18.206;2023-06-10T01:23:56;19.70;99.90
23395;DHT22;11870;53.084;18.206;2023-06-10T01:26:28;18.00;99.90
23395;DHT22;11870;53.084;18.206;2023-06-10T01:28:59;16.20;99.90
23395;DHT22;11870;53.084;18.206;2023-06-10T01:34:23;16.40;99.90
23395;DHT22;11870;53.084;18.206;2023-06-10T01:36:50;16.30;99.90
23395;DHT22;11870;53.084;18.206;2023-06-10T01:39:21;16.10;99.90
23395;DHT22;11870;53.084;18.206;2023-06-10T01:41:49;16.20;99.90
23395;DHT22;11870;53.084;18.206;2023-06-10T01:44:22;16.60;99.90
23395;DHT22;11870;53.084;18.206;2023-06-10T01:46:49;16.30;99.90
23395;DHT22;11870;53.084;18.206;2023-06-10T01:49:15;18.00;99.90
23395;DHT22;11870;53.084;18.206;2023-06-10T01:51:41;17.60;99.90
23395;DHT22;11870;53.084;18.206;2023-06-10T01:54:07;16.20;99.90
23395;DHT22;11870;53.084;18.206;2023-06-10T01:59:00;16.40;99.90
23395;DHT22;11870;53.084;18.206;2023-06-10T02:01:26;16.40;99.90
23395;DHT22;11870;53.084;18.206;2023-06-10T02:03:52;16.50;99.90
23395;DHT22;11870;53.084;18.206;2023-06-10T02:06:18;16.60;99.90
23395;DHT22;11870;53.084;18.206;2023-06-10T02:08:44;16.60;99.90
23395;DHT22;11870;53.084;18.206;2023-06-10T02:13:38;16.60;99.90
23395;DHT22;11870;53.084;18.206;2023-06-10T02:16:04;16.60;99.90
23395;DHT22;11870;53.084;18.206;2023-06-10T02:18:31;16.70;99.90
23395;DHT22;11870;53.084;18.206;2023-06-10T02:23:24;16.60;99.90
23395;DHT22;11870;53.084;18.206;2023-06-10T02:28:16;16.70;99.90
23395;DHT22;11870;53.084;18.206;2023-06-10T02:30:42;16.80;99.90
23395;DHT22;11870;53.084;18.206;2023-06-10T02:33:09;16.90;99.90
23395;DHT22;11870;53.084;18.206;2023-06-10T02:35:38;16.60;99.90
23395;DHT22;11870;53.084;18.206;2023-06-10T02:38:04;16.80;99.90
23395;DHT22;11870;53.084;18.206;2023-06-10T02:40:31;16.90;99.90
23395;DHT22;11870;53.084;18.206;2023-06-10T02:42:57;16.90;99.90
23395;DHT22;11870;53.084;18.206;2023-06-10T02:45:24;17.00;99.90
23395;DHT22;11870;53.084;18.206;2023-06-10T02:47:50;19.30;99.90
23395;DHT22;11870;53.084;18.206;2023-06-10T02:52:43;16.90;99.90
23395;DHT22;11870;53.084;18.206;2023-06-10T02:57:35;17.00;99.90
23395;DHT22;11870;53.084;18.206;2023-06-10T03:02:30;17.00;99.90
23395;DHT22;11870;53.084;18.206;2023-06-10T03:04:57;16.70;99.90
23395;DHT22;11870;53.084;18.206;2023-06-10T03:07:23;16.90;99.90
23395;DHT22;11870;53.084;18.206;2023-06-10T03:09:50;17.10;99.90
23395;DHT22;11870;53.084;18.206;2023-06-10T03:12:16;16.80;99.90
23395;DHT22;11870;53.084;18.206;2023-06-10T03:14:42;16.80;99.90
23395;DHT22;11870;53.084;18.206;2023-06-10T03:17:08;16.80;99.90
23395;DHT22;11870;53.084;18.206;2023-06-10T03:19:34;16.80;99.90
23395;DHT22;11870;53.084;18.206;2023-06-10T03:22:10;17.10;99.90
23395;DHT22;11870;53.084;18.206;2023-06-10T03:24:37;16.80;99.90
23395;DHT22;11870;53.084;18.206;2023-06-10T03:27:09;16.90;99.90
23395;DHT22;11870;53.084;18.206;2023-06-10T03:29:37;16.80;99.90
23395;DHT22;11870;53.084;18.206;2023-06-10T03:32:03;16.90;99.90
23395;DHT22;11870;53.084;18.206;2023-06-10T03:34:29;16.90;99.90
23395;DHT22;11870;53.084;18.206;2023-06-10T03:36:56;17.00;99.90
23395;DHT22;11870;53.084;18.206;2023-06-10T03:39:22;17.00;99.90
23395;DHT22;11870;53.084;18.206;2023-06-10T03:41:50;17.10;99.90
23395;DHT22;11870;53.084;18.206;2023-06-10T03:44:16;17.10;99.90
23395;DHT22;11870;53.084;18.206;2023-06-10T03:46:42;17.10;99.90
23395;DHT22;11870;53.084;18.206;2023-06-10T03:51:35;17.20;99.90
23395;DHT22;11870;53.084;18.206;2023-06-10T03:54:02;18.90;99.90
23395;DHT22;11870;53.084;18.206;2023-06-10T03:58:55;17.70;99.90
23395;DHT22;11870;53.084;18.206;2023-06-10T04:01:21;18.50;99.90
23395;DHT22;11870;53.084;18.206;2023-06-10T04:03:48;18.50;99.90
23395;DHT22;11870;53.084;18.206;2023-06-10T04:06:17;19.00;99.90
23395;DHT22;11870;53.084;18.206;2023-06-10T04:11:09;19.70;99.90
23395;DHT22;11870;53.084;18.206;2023-06-10T04:47:48;26.50;50.50
23395;DHT22;11870;53.084;18.206;2023-06-10T04:50:14;27.10;50.70
23395;DHT22;11870;53.084;18.206;2023-06-10T04:55:08;28.50;44.50
23395;DHT22;11870;53.084;18.206;2023-06-10T04:57:34;28.40;42.90
23395;DHT22;11870;53.084;18.206;2023-06-10T05:07:20;29.60;38.40
23395;DHT22;11870;53.084;18.206;2023-06-10T05:12:12;30.00;36.60
23395;DHT22;11870;53.084;18.206;2023-06-10T05:17:05;29.70;36.10
23395;DHT22;11870;53.084;18.206;2023-06-10T05:53:42;27.00;39.70
23395;DHT22;11870;53.084;18.206;2023-06-10T05:58:35;28.50;36.40
23395;DHT22;11870;53.084;18.206;2023-06-10T06:08:20;29.70;34.40
23395;DHT22;11870;53.084;18.206;2023-06-10T06:10:46;30.00;35.20
23395;DHT22;11870;53.084;18.206;2023-06-10T06:15:40;30.10;33.30
23395;DHT22;11870;53.084;18.206;2023-06-10T06:27:51;29.30;33.50
23395;DHT22;11870;53.084;18.206;2023-06-10T06:30:17;29.60;34.00
23395;DHT22;11870;53.084;18.206;2023-06-10T06:35:10;30.30;32.30
23395;DHT22;11870;53.084;18.206;2023-06-10T06:37:36;30.50;32.60
23395;DHT22;11870;53.084;18.206;2023-06-10T06:40:02;30.60;32.60
23395;DHT22;11870;53.084;18.206;2023-06-10T06:44:55;31.90;30.80
23395;DHT22;11870;53.084;18.206;2023-06-10T06:49:48;34.20;28.70
23395;DHT22;11870;53.084;18.206;2023-06-10T06:52:15;35.60;26.90
23395;DHT22;11870;53.084;18.206;2023-06-10T06:57:08;37.00;24.70
23395;DHT22;11870;53.084;18.206;2023-06-10T06:59:33;37.40;24.10
23395;DHT22;11870;53.084;18.206;2023-06-10T07:23:58;39.80;21.70
23395;DHT22;11870;53.084;18.206;2023-06-10T07:26:24;40.50;21.00
23395;DHT22;11870;53.084;18.206;2023-06-10T07:28:51;40.90;20.50
23395;DHT22;11870;53.084;18.206;2023-06-10T07:31:17;41.30;20.30
23395;DHT22;11870;53.084;18.206;2023-06-10T07:33:43;41.30;20.00
23395;DHT22;11870;53.084;18.206;2023-06-10T07:36:09;41.40;19.20
23395;DHT22;11870;53.084;18.206;2023-06-10T07:38:35;41.70;18.50
23395;DHT22;11870;53.084;18.206;2023-06-10T07:41:02;42.00;18.40
23395;DHT22;11870;53.084;18.206;2023-06-10T07:45:54;41.30;17.70
23395;DHT22;11870;53.084;18.206;2023-06-10T07:50:46;41.70;17.60
23395;DHT22;11870;53.084;18.206;2023-06-10T07:55:39;42.10;17.40
23395;DHT22;11870;53.084;18.206;2023-06-10T08:00:31;42.00;17.20
23395;DHT22;11870;53.084;18.206;2023-06-10T08:05:24;42.80;17.00
23395;DHT22;11870;53.084;18.206;2023-06-10T08:07:49;43.10;16.90
23395;DHT22;11870;53.084;18.206;2023-06-10T08:10:15;43.10;17.50
23395;DHT22;11870;53.084;18.206;2023-06-10T08:12:41;43.20;16.70
23395;DHT22;11870;53.084;18.206;2023-06-10T08:15:08;43.20;16.70
23395;DHT22;11870;53.084;18.206;2023-06-10T08:17:33;43.40;16.60
23395;DHT22;11870;53.084;18.206;2023-06-10T08:20:01;43.50;16.10
23395;DHT22;11870;53.084;18.206;2023-06-10T08:22:28;43.70;16.30
23395;DHT22;11870;53.084;18.206;2023-06-10T08:24:55;43.40;16.10
23395;DHT22;11870;53.084;18.206;2023-06-10T08:27:21;42.70;16.20
23395;DHT22;11870;53.084;18.206;2023-06-10T08:29:47;43.00;16.10
23395;DHT22;11870;53.084;18.206;2023-06-10T08:32:13;43.80;16.30
23395;DHT22;11870;53.084;18.206;2023-06-10T08:34:39;44.10;15.50
23395;DHT22;11870;53.084;18.206;2023-06-10T08:37:06;44.20;15.50
23395;DHT22;11870;53.084;18.206;2023-06-10T08:39:33;44.00;15.10
23395;DHT22;11870;53.084;18.206;2023-06-10T08:42:09;44.40;15.60
23395;DHT22;11870;53.084;18.206;2023-06-10T08:44:37;44.90;15.20
23395;DHT22;11870;53.084;18.206;2023-06-10T08:47:14;45.50;14.80
23395;DHT22;11870;53.084;18.206;2023-06-10T08:49:45;46.10;14.30
23395;DHT22;11870;53.084;18.206;2023-06-10T08:52:15;46.60;14.00
23395;DHT22;11870;53.084;18.206;2023-06-10T08:54:59;46.50;14.20
23395;DHT22;11870;53.084;18.206;2023-06-10T08:57:27;46.60;13.70
23395;DHT22;11870;53.084;18.206;2023-06-10T08:59:53;45.80;14.20
23395;DHT22;11870;53.084;18.206;2023-06-10T09:02:20;46.00;14.20
23395;DHT22;11870;53.084;18.206;2023-06-10T09:04:47;46.00;13.80
23395;DHT22;11870;53.084;18.206;2023-06-10T09:07:15;45.60;14.00
23395;DHT22;11870;53.084;18.206;2023-06-10T09:09:45;44.90;14.50
23395;DHT22;11870;53.084;18.206;2023-06-10T09:12:12;44.40;15.10
23395;DHT22;11870;53.084;18.206;2023-06-10T09:14:39;44.50;15.30
23395;DHT22;11870;53.084;18.206;2023-06-10T09:17:06;44.90;15.50
23395;DHT22;11870;53.084;18.206;2023-06-10T09:19:32;46.00;13.50
23395;DHT22;11870;53.084;18.206;2023-06-10T09:21:58;45.90;13.90
23395;DHT22;11870;53.084;18.206;2023-06-10T09:24:25;46.20;13.80
23395;DHT22;11870;53.084;18.206;2023-06-10T09:27:01;45.10;14.70
23395;DHT22;11870;53.084;18.206;2023-06-10T09:29:27;45.60;14.60
23395;DHT22;11870;53.084;18.206;2023-06-10T09:31:53;45.90;14.50
23395;DHT22;11870;53.084;18.206;2023-06-10T09:34:24;46.10;13.70
23395;DHT22;11870;53.084;18.206;2023-06-10T09:36:50;45.10;13.70
23395;DHT22;11870;53.084;18.206;2023-06-10T09:39:18;44.00;14.60
23395;DHT22;11870;53.084;18.206;2023-06-10T09:41:45;43.80;14.80
23395;DHT22;11870;53.084;18.206;2023-06-10T09:44:19;43.60;14.50
23395;DHT22;11870;53.084;18.206;2023-06-10T09:46:47;43.20;14.90
23395;DHT22;11870;53.084;18.206;2023-06-10T09:49:14;43.50;14.80
23395;DHT22;11870;53.084;18.206;2023-06-10T09:51:53;44.10;14.80
23395;DHT22;11870;53.084;18.206;2023-06-10T09:54:22;44.40;14.50
23395;DHT22;11870;53.084;18.206;2023-06-10T09:56:50;44.80;14.50
23395;DHT22;11870;53.084;18.206;2023-06-10T09:59:37;44.40;14.90
23395;DHT22;11870;53.084;18.206;2023-06-10T10:02:03;44.90;14.60
23395;DHT22;11870;53.084;18.206;2023-06-10T10:04:30;45.50;14.10
23395;DHT22;11870;53.084;18.206;2023-06-10T10:06:56;46.20;14.00
23395;DHT22;11870;53.084;18.206;2023-06-10T10:09:22;45.40;14.10
23395;DHT22;11870;53.084;18.206;2023-06-10T10:11:48;44.70;14.30
23395;DHT22;11870;53.084;18.206;2023-06-10T10:14:16;43.70;15.80
23395;DHT22;11870;53.084;18.206;2023-06-10T10:16:42;41.50;16.20
23395;DHT22;11870;53.084;18.206;2023-06-10T10:19:18;40.90;15.00
23395;DHT22;11870;53.084;18.206;2023-06-10T10:22:07;38.80;16.10
23395;DHT22;11870;53.084;18.206;2023-06-10T10:24:40;36.90;17.60
23395;DHT22;11870;53.084;18.206;2023-06-10T10:27:16;35.60;18.20
23395;DHT22;11870;53.084;18.206;2023-06-10T10:29:46;35.40;18.70
23395;DHT22;11870;53.084;18.206;2023-06-10T10:32:14;33.00;21.40
23395;DHT22;11870;53.084;18.206;2023-06-10T10:34:55;31.80;22.40
23395;DHT22;11870;53.084;18.206;2023-06-10T10:49:43;29.00;24.30
23395;DHT22;11870;53.084;18.206;2023-06-10T10:52:13;29.00;24.80
23395;DHT22;11870;53.084;18.206;2023-06-10T10:54:44;28.10;26.20
23395;DHT22;11870;53.084;18.206;2023-06-10T10:57:19;27.90;28.10
23395;DHT22;11870;53.084;18.206;2023-06-10T11:02:16;27.90;26.20
23395;DHT22;11870;53.084;18.206;2023-06-10T11:04:47;27.80;26.60
23395;DHT22;11870;53.084;18.206;2023-06-10T11:07:14;27.70;25.90
23395;DHT22;11870;53.084;18.206;2023-06-10T11:10:10;27.70;26.40
23395;DHT22;11870;53.084;18.206;2023-06-10T11:40:53;27.00;24.50
23395;DHT22;11870;53.084;18.206;2023-06-10T11:53:08;26.30;24.90
23395;DHT22;11870;53.084;18.206;2023-06-10T11:55:44;26.20;25.30
23395;DHT22;11870;53.084;18.206;2023-06-10T11:58:21;26.10;25.90
23395;DHT22;11870;53.084;18.206;2023-06-10T12:00:50;26.40;25.10
23395;DHT22;11870;53.084;18.206;2023-06-10T12:03:17;26.30;24.80
23395;DHT22;11870;53.084;18.206;2023-06-10T12:05:57;26.30;25.20
23395;DHT22;11870;53.084;18.206;2023-06-10T12:18:18;26.50;24.90
23395;DHT22;11870;53.084;18.206;2023-06-10T12:30:31;26.30;21.70
23395;DHT22;11870;53.084;18.206;2023-06-10T12:35:26;26.00;21.30
23395;DHT22;11870;53.084;18.206;2023-06-10T12:38:04;25.90;23.70
23395;DHT22;11870;53.084;18.206;2023-06-10T12:40:36;25.90;21.20
23395;DHT22;11870;53.084;18.206;2023-06-10T12:45:36;25.80;18.90
23395;DHT22;11870;53.084;18.206;2023-06-10T12:48:16;25.80;20.50
23395;DHT22;11870;53.084;18.206;2023-06-10T12:50:44;25.80;19.50
23395;DHT22;11870;53.084;18.206;2023-06-10T12:53:11;25.80;18.80
23395;DHT22;11870;53.084;18.206;2023-06-10T13:03:01;25.50;21.60
23395;DHT22;11870;53.084;18.206;2023-06-10T13:05:28;25.60;21.20
23395;DHT22;11870;53.084;18.206;2023-06-10T13:17:43;25.50;24.30
23395;DHT22;11870;53.084;18.206;2023-06-10T13:30:06;25.40;23.10
23395;DHT22;11870;53.084;18.206;2023-06-10T13:42:19;25.00;22.30
23395;DHT22;11870;53.084;18.206;2023-06-10T13:52:06;24.90;23.80
23395;DHT22;11870;53.084;18.206;2023-06-10T14:28:48;24.70;23.90
23395;DHT22;11870;53.084;18.206;2023-06-10T14:36:10;24.60;23.40
23395;DHT22;11870;53.084;18.206;2023-06-10T14:53:17;24.40;23.20
23395;DHT22;11870;53.084;18.206;2023-06-10T14:55:44;24.40;23.20
23395;DHT22;11870;53.084;18.206;2023-06-10T15:15:22;24.30;24.10
23395;DHT22;11870;53.084;18.206;2023-06-10T15:25:08;24.20;25.40
23395;DHT22;11870;53.084;18.206;2023-06-10T17:05:16;23.00;25.50
23395;DHT22;11870;53.084;18.206;2023-06-10T17:10:09;22.90;25.80
23395;DHT22;11870;53.084;18.206;2023-06-10T17:32:08;22.30;36.10
23395;DHT22;11870;53.084;18.206;2023-06-10T17:44:22;21.70;38.00
23395;DHT22;11870;53.084;18.206;2023-06-10T17:46:50;21.60;38.30
23395;DHT22;11870;53.084;18.206;2023-06-10T18:47:50;19.80;42.80
23395;DHT22;11870;53.084;18.206;2023-06-10T19:00:02;19.30;44.30
23395;DHT22;11870;53.084;18.206;2023-06-10T19:04:55;19.20;44.90
23395;DHT22;11870;53.084;18.206;2023-06-10T19:09:48;18.90;45.80
23395;DHT22;11870;53.084;18.206;2023-06-10T19:12:14;18.90;46.70
23395;DHT22;11870;53.084;18.206;2023-06-10T19:14:40;18.80;46.90
23395;DHT22;11870;53.084;18.206;2023-06-10T19:17:07;20.70;48.20
23395;DHT22;11870;53.084;18.206;2023-06-10T19:19:33;18.60;47.40
23395;DHT22;11870;53.084;18.206;2023-06-10T19:21:59;18.60;48.20
23395;DHT22;11870;53.084;18.206;2023-06-10T19:24:25;18.50;48.60
23395;DHT22;11870;53.084;18.206;2023-06-10T19:26:51;18.30;49.30
23395;DHT22;11870;53.084;18.206;2023-06-10T19:31:43;18.20;49.40
23395;DHT22;11870;53.084;18.206;2023-06-10T19:36:36;18.30;55.80
23395;DHT22;11870;53.084;18.206;2023-06-10T19:39:02;18.00;50.90
23395;DHT22;11870;53.084;18.206;2023-06-10T19:41:28;18.00;51.30
23395;DHT22;11870;53.084;18.206;2023-06-10T19:46:21;17.90;51.50
23395;DHT22;11870;53.084;18.206;2023-06-10T19:48:47;17.80;52.80
23395;DHT22;11870;53.084;18.206;2023-06-10T19:51:14;17.80;57.90
23395;DHT22;11870;53.084;18.206;2023-06-10T19:53:40;17.80;53.20
23395;DHT22;11870;53.084;18.206;2023-06-10T19:58:32;17.70;53.50
23395;DHT22;11870;53.084;18.206;2023-06-10T20:00:59;17.60;54.70
23395;DHT22;11870;53.084;18.206;2023-06-10T20:05:51;17.50;55.00
23395;DHT22;11870;53.084;18.206;2023-06-10T20:10:43;17.30;55.70
23395;DHT22;11870;53.084;18.206;2023-06-10T20:13:11;17.30;56.50
23395;DHT22;11870;53.084;18.206;2023-06-10T20:15:37;17.20;57.30
23395;DHT22;11870;53.084;18.206;2023-06-10T20:20:29;17.10;57.70
23395;DHT22;11870;53.084;18.206;2023-06-10T20:25:21;17.00;58.20
23395;DHT22;11870;53.084;18.206;2023-06-10T20:30:15;17.00;58.70
23395;DHT22;11870;53.084;18.206;2023-06-10T20:35:08;16.80;59.10
23395;DHT22;11870;53.084;18.206;2023-06-10T20:37:34;16.80;59.50
23395;DHT22;11870;53.084;18.206;2023-06-10T20:40:00;16.80;59.70
23395;DHT22;11870;53.084;18.206;2023-06-10T20:44:53;16.80;59.50
23395;DHT22;11870;53.084;18.206;2023-06-10T20:47:20;16.20;66.90
23395;DHT22;11870;53.084;18.206;2023-06-10T20:49:46;20.10;62.60
23395;DHT22;11870;53.084;18.206;2023-06-10T20:54:38;16.40;60.50
23395;DHT22;11870;53.084;18.206;2023-06-10T20:57:04;17.00;62.80
23395;DHT22;11870;53.084;18.206;2023-06-10T20:59:31;16.30;60.80
23395;DHT22;11870;53.084;18.206;2023-06-10T21:04:25;16.40;60.30
23395;DHT22;11870;53.084;18.206;2023-06-10T21:09:17;16.40;59.80
23395;DHT22;11870;53.084;18.206;2023-06-10T21:11:43;16.20;61.20
23395;DHT22;11870;53.084;18.206;2023-06-10T21:14:09;16.10;62.30
23395;DHT22;11870;53.084;18.206;2023-06-10T21:19:03;16.20;59.80
23395;DHT22;11870;53.084;18.206;2023-06-10T21:21:28;20.10;63.00
23395;DHT22;11870;53.084;18.206;2023-06-10T21:23:55;16.20;60.20
23395;DHT22;11870;53.084;18.206;2023-06-10T21:26:20;16.30;59.80
23395;DHT22;11870;53.084;18.206;2023-06-10T21:28:47;16.30;59.20
23395;DHT22;11870;53.084;18.206;2023-06-10T21:33:39;16.30;57.80
23395;DHT22;11870;53.084;18.206;2023-06-10T21:36:05;16.30;58.50
23395;DHT22;11870;53.084;18.206;2023-06-10T21:38:31;16.30;58.20
23395;DHT22;11870;53.084;18.206;2023-06-10T21:43:24;16.30;57.50
23395;DHT22;11870;53.084;18.206;2023-06-10T21:48:16;16.40;57.20
23395;DHT22;11870;53.084;18.206;2023-06-10T21:53:08;16.30;57.10
23395;DHT22;11870;53.084;18.206;2023-06-10T21:58:01;16.30;57.20
23395;DHT22;11870;53.084;18.206;2023-06-10T22:00:27;18.20;58.50
23395;DHT22;11870;53.084;18.206;2023-06-10T22:02:53;16.70;57.90
23395;DHT22;11870;53.084;18.206;2023-06-10T22:05:19;18.40;58.50
23395;DHT22;11870;53.084;18.206;2023-06-10T22:07:46;17.40;57.60
23395;DHT22;11870;53.084;18.206;2023-06-10T22:12:38;16.10;56.80
23395;DHT22;11870;53.084;18.206;2023-06-10T22:15:04;16.10;57.30
23395;DHT22;11870;53.084;18.206;2023-06-10T22:17:30;16.00;57.40
23395;DHT22;11870;53.084;18.206;2023-06-10T22:22:23;16.00;56.50
23395;DHT22;11870;53.084;18.206;2023-06-10T22:24:56;16.00;57.00
23395;DHT22;11870;53.084;18.206;2023-06-10T22:27:22;16.30;63.50
23395;DHT22;11870;53.084;18.206;2023-06-10T22:29:49;20.10;58.50
23395;DHT22;11870;53.084;18.206;2023-06-10T22:32:15;16.00;56.50
23395;DHT22;11870;53.084;18.206;2023-06-10T22:34:41;19.50;58.10
23395;DHT22;11870;53.084;18.206;2023-06-10T22:37:07;16.00;56.70
23395;DHT22;11870;53.084;18.206;2023-06-10T22:39:35;15.90;56.50
23395;DHT22;11870;53.084;18.206;2023-06-10T22:42:01;16.00;63.50
23395;DHT22;11870;53.084;18.206;2023-06-10T22:44:27;15.80;56.60
23395;DHT22;11870;53.084;18.206;2023-06-10T22:46:53;15.80;56.50
23395;DHT22;11870;53.084;18.206;2023-06-10T22:51:46;15.80;55.70
23395;DHT22;11870;53.084;18.206;2023-06-10T22:54:12;17.30;57.10
23395;DHT22;11870;53.084;18.206;2023-06-10T22:56:39;15.70;63.70
23395;DHT22;11870;53.084;18.206;2023-06-10T23:01:32;15.70;56.00
23395;DHT22;11870;53.084;18.206;2023-06-10T23:06:24;15.60;56.40
23395;DHT22;11870;53.084;18.206;2023-06-10T23:11:17;15.50;56.00
23395;DHT22;11870;53.084;18.206;2023-06-10T23:16:09;15.40;56.00
23395;DHT22;11870;53.084;18.206;2023-06-10T23:21:02;15.30;56.10
23395;DHT22;11870;53.084;18.206;2023-06-10T23:26:03;15.20;56.40
23395;DHT22;11870;53.084;18.206;2023-06-10T23:28:29;15.10;57.10
23395;DHT22;11870;53.084;18.206;2023-06-10T23:30:55;17.30;58.30
23395;DHT22;11870;53.084;18.206;2023-06-10T23:33:24;19.00;59.20
23395;DHT22;11870;53.084;18.206;2023-06-10T23:35:53;15.40;57.20
23395;DHT22;11870;53.084;18.206;2023-06-10T23:38:19;15.00;64.40
23395;DHT22;11870;53.084;18.206;2023-06-10T23:40:45;15.00;57.20
23395;DHT22;11870;53.084;18.206;2023-06-10T23:43:12;15.50;57.40
23395;DHT22;11870;53.084;18.206;2023-06-10T23:45:38;18.30;58.70
23395;DHT22;11870;53.084;18.206;2023-06-10T23:48:05;16.80;58.40
23395;DHT22;11870;53.084;18.206;2023-06-10T23:50:31;14.90;57.40
23395;DHT22;11870;53.084;18.206;2023-06-10T23:53:02;15.00;57.30
23395;DHT22;11870;53.084;18.206;2023-06-10T23:55:28;15.00;57.00
